05:16
Airports
History
Links
Donate
Help keep this website running!
PayPal
Bitcoin
Information on this page is community maintained and may be outdated or inaccurate and is intended for reference only or PC simulator navigating.
Always use approved charts for navigating.
ETOR
Coleman AAF
Coleman AAF (ETOR)
Mannheim, Baden-Wurttemberg, Germany (68307)
(C)
Lat/Lng:49° 33' 48.85" N / 8° 27' 48.21" E
49.56357 / 8.463393
Elevation:309'ft 94mMSL
ID / ICAO:ETOR
Runways:1
Longest:(05-23) 917.3m 3,010ft Asphalt
Controlled:Yes
Distance To
Airport ID:
Airport Radio Frequencies
Tower: 122.1
Approach: 130.5
Nearby VORs <50NM
Nearby NDBs
METARUpdated 01-14-13 15:56 GMT
Altimeter: 29.95
Visibility: 6.2 statute miles
Wind: 2 knots (320°)
Temp: -2°c 28°f
Humidity: 79.9%

METAR: ETOR 141556Z AUTO 32002KT 9999 OVC050 M02/M05 A2995 RMK AO2 SLP153 T10221052

(Powered by phpweather)
Runway 05 / 23
Dimensions:917.3 x 22.9m 3010' x 75'ft
Surface:Asphalt
Edge Lights:High intensity
Runway 05 [A]Runway 23 [B]
Heading:049°TH 229°TH
Lat:
Lng:
49° 33' 39.21"N
8° 27' 30.91"E
49° 33' 58.49"N
8° 28' 5.52"E
ALS:ODALSRAIL
TDZ:Yes, lighted
User Notes and Comments
Google Map
Nearby Airports
(U) Worms 5.2 NM
EDFV NW 304°
(C) Mannheim City 6.6 NM
EDFM (WX) SSE 160°
(U) Bad Duerkheim 13.5 NM
EDRF WSW 242°
(C) Speyer 18.0 NM
EDRY S 181°
(C) Oppenheim 19.6 NM
EDGP NNW 348°
(U) Michelstadt Odenwald 24.2 NM
EDFO ENE 70°
(C) Frankfurt-Egelsbach 28.5 NM
EDFE NNE 16°
VFR Chart
Flight Planning at SkyVector.com